Time;durP1;ratioP1;P1;durP2;ratioP2;P2;SDS_P1;SDS_P2;PMS_P1;PMS_P2;Temp;Humidity;BMP_temperature;BMP_pressure;BME280_temperature;BME280_humidity;BME280_pressure;Samples;Min_cycle;Max_cycle;Signal;HPM_P1;HPM_P2
2023/05/18 01:17:36;;;;;;;21.17;11.60;;;;;;;;;;2516272;23;20373;-91
2023/05/18 01:19:04;;;;;;;20.33;10.90;;;;;;;;;;2519919;23;20019;-90
2023/05/18 01:20:28;;;;;;;20.65;10.05;;;;;;;;;;2517878;23;20014;-91
2023/05/18 01:22:07;;;;;;;19.52;10.07;;;;;;;;;;2521566;23;20013;-90
2023/05/18 01:23:43;;;;;;;18.52;9.93;;;;;;;;;;2530652;23;20014;-90
2023/05/18 01:25:28;;;;;;;20.73;10.65;;;;;;;;;;2520007;23;20013;-90
2023/05/18 01:26:49;;;;;;;17.50;10.25;;;;;;;;;;2521840;23;20014;-91
2023/05/18 01:28:13;;;;;;;22.50;11.57;;;;;;;;;;2516307;23;20367;-90
2023/05/18 01:29:34;;;;;;;15.05;9.95;;;;;;;;;;2519641;23;20010;-90
2023/05/18 01:30:56;;;;;;;27.45;11.45;;;;;;;;;;2514627;23;20025;-90
2023/05/18 01:32:18;;;;;;;21.52;11.45;;;;;;;;;;2528933;23;20029;-91
2023/05/18 01:33:40;;;;;;;18.35;10.65;;;;;;;;;;2531066;23;20018;-90
2023/05/18 01:35:00;;;;;;;23.75;10.52;;;;;;;;;;2524052;23;20015;-91
2023/05/18 01:36:21;;;;;;;21.90;11.02;;;;;;;;;;2527289;23;20017;-91
2023/05/18 01:37:42;;;;;;;21.77;10.65;;;;;;;;;;2520977;23;20479;-91
2023/05/18 01:39:04;;;;;;;19.65;10.27;;;;;;;;;;2515409;23;20030;-90
2023/05/18 01:40:26;;;;;;;14.88;9.73;;;;;;;;;;2516543;23;20006;-91
2023/05/18 01:41:51;;;;;;;17.83;10.55;;;;;;;;;;2520159;23;20011;-90
2023/05/18 01:43:14;;;;;;;19.60;11.02;;;;;;;;;;2530076;23;20010;-91
2023/05/18 01:44:40;;;;;;;15.38;10.73;;;;;;;;;;2519957;23;20337;-91
2023/05/18 01:46:10;;;;;;;21.17;11.23;;;;;;;;;;2517787;23;20010;-91
2023/05/18 01:47:32;;;;;;;18.88;11.38;;;;;;;;;;2518677;23;20006;-90
2023/05/18 01:48:54;;;;;;;23.80;11.52;;;;;;;;;;2526596;23;20088;-90
2023/05/18 01:50:21;;;;;;;17.33;10.05;;;;;;;;;;2520353;23;20483;-90
2023/05/18 01:51:45;;;;;;;21.98;11.93;;;;;;;;;;2519095;23;20329;-90
2023/05/18 01:53:18;;;;;;;22.70;10.65;;;;;;;;;;2521944;23;20025;-90
2023/05/18 01:54:40;;;;;;;17.95;10.73;;;;;;;;;;2540844;23;20288;-90
2023/05/18 01:56:05;;;;;;;24.38;11.93;;;;;;;;;;2532949;23;20029;-91
2023/05/18 01:57:28;;;;;;;16.55;10.20;;;;;;;;;;2530713;23;20357;-90
2023/05/18 01:58:49;;;;;;;23.63;11.95;;;;;;;;;;2543616;23;20013;-91
2023/05/18 02:00:10;;;;;;;19.75;11.35;;;;;;;;;;2530498;23;20089;-91
2023/05/18 02:01:31;;;;;;;27.83;11.45;;;;;;;;;;2540721;23;20143;-90
2023/05/18 02:02:52;;;;;;;27.35;12.93;;;;;;;;;;2527028;23;20021;-90
2023/05/18 02:04:13;;;;;;;28.63;12.57;;;;;;;;;;2515482;23;20022;-90
2023/05/18 02:05:34;;;;;;;17.73;11.40;;;;;;;;;;2515067;23;20014;-90
2023/05/18 02:06:56;;;;;;;23.35;11.52;;;;;;;;;;2527353;23;20017;-91
2023/05/18 02:08:17;;;;;;;21.15;11.32;;;;;;;;;;2518711;23;20045;-91
2023/05/18 02:09:38;;;;;;;15.85;10.60;;;;;;;;;;2516961;23;20014;-91
2023/05/18 02:10:58;;;;;;;18.83;9.70;;;;;;;;;;2527567;23;20018;-91
2023/05/18 02:12:19;;;;;;;21.17;10.90;;;;;;;;;;2521702;23;20278;-90
2023/05/18 02:13:40;;;;;;;17.52;10.68;;;;;;;;;;2516164;23;20033;-90
2023/05/18 02:15:04;;;;;;;16.83;10.75;;;;;;;;;;2519639;23;20007;-91
2023/05/18 02:16:25;;;;;;;16.58;10.18;;;;;;;;;;2531286;23;20452;-91
2023/05/18 02:17:46;;;;;;;18.92;10.20;;;;;;;;;;2523442;23;20010;-90
2023/05/18 02:19:07;;;;;;;17.15;9.75;;;;;;;;;;2520699;23;20022;-91
2023/05/18 02:20:32;;;;;;;21.60;10.57;;;;;;;;;;2529028;23;20072;-90
2023/05/18 02:21:53;;;;;;;18.63;11.25;;;;;;;;;;2524600;23;20008;-90
2023/05/18 02:23:14;;;;;;;18.05;10.25;;;;;;;;;;2517132;23;20062;-90
2023/05/18 02:24:35;;;;;;;25.30;12.05;;;;;;;;;;2528232;23;20006;-90
2023/05/18 02:25:56;;;;;;;19.42;10.88;;;;;;;;;;2518481;23;20017;-90
2023/05/18 02:27:17;;;;;;;17.58;10.60;;;;;;;;;;2517112;23;20017;-90
2023/05/18 02:28:38;;;;;;;21.33;10.25;;;;;;;;;;2516795;23;20014;-90
2023/05/18 02:29:59;;;;;;;21.63;10.73;;;;;;;;;;2529472;23;20040;-91
2023/05/18 02:31:20;;;;;;;22.90;10.43;;;;;;;;;;2519162;23;20011;-91
2023/05/18 02:32:41;;;;;;;19.48;10.88;;;;;;;;;;2516586;23;20007;-90
2023/05/18 02:34:02;;;;;;;21.10;10.02;;;;;;;;;;2517812;23;20113;-91
2023/05/18 02:35:23;;;;;;;18.55;11.38;;;;;;;;;;2528884;23;20010;-90
2023/05/18 02:36:45;;;;;;;16.88;10.40;;;;;;;;;;2521272;23;20006;-90
2023/05/18 02:38:06;;;;;;;24.13;11.55;;;;;;;;;;2519568;23;20059;-90
2023/05/18 02:39:26;;;;;;;15.35;9.57;;;;;;;;;;2516398;23;20112;-91
2023/05/18 02:40:47;;;;;;;22.40;11.43;;;;;;;;;;2528787;23;20018;-89
2023/05/18 02:42:08;;;;;;;26.80;11.40;;;;;;;;;;2517361;23;20010;-87
2023/05/18 02:43:29;;;;;;;26.02;12.23;;;;;;;;;;2525474;23;20014;-88
2023/05/18 02:44:50;;;;;;;19.98;10.90;;;;;;;;;;2527335;23;20447;-87
2023/05/18 02:46:11;;;;;;;24.17;11.70;;;;;;;;;;2538962;23;20346;-88
2023/05/18 02:47:32;;;;;;;24.30;12.18;;;;;;;;;;2528872;23;20010;-87
2023/05/18 02:48:53;;;;;;;23.02;11.13;;;;;;;;;;2540248;23;20033;-88
2023/05/18 02:50:14;;;;;;;20.83;11.18;;;;;;;;;;2529876;23;20010;-86
2023/05/18 02:51:35;;;;;;;22.92;11.55;;;;;;;;;;2537943;23;20320;-88
2023/05/18 02:52:56;;;;;;;29.45;12.38;;;;;;;;;;2524936;23;20405;-87
2023/05/18 02:54:17;;;;;;;27.52;12.55;;;;;;;;;;2524968;23;20424;-87
2023/05/18 02:55:39;;;;;;;23.02;11.85;;;;;;;;;;2517427;23;20093;-86
2023/05/18 02:57:00;;;;;;;;;;;;;;;;;;2515366;23;20017;-96
2023/05/18 02:58:24;;;;;;;21.10;11.82;;;;;;;;;;2517769;23;19901;-96
2023/05/18 02:59:45;;;;;;;20.40;10.88;;;;;;;;;;2528796;23;20010;-96
2023/05/18 03:01:06;;;;;;;20.20;10.95;;;;;;;;;;2519817;23;20306;-96
2023/05/18 08:37:28;;;;;;;13.47;5.80;;;;;;;;;;2476774;23;1369680;-79
2023/05/18 08:43:22;;;;;;;;;;;;;;;;;;;;;
2023/05/18 08:45:30;;;;;;;;;;;;;;;;;;;;;
2023/05/18 08:47:18;;;;;;;;;;;;;;;;;;;;;
2023/05/18 08:59:11;;;;;;;19.75;7.22;;;;;;;;;;2437759;24;20009;-79
2023/05/18 09:00:54;;;;;;;;;;;;;;;;;;;;;
2023/05/18 09:04:13;;;;;;;18.17;6.88;;;;;;;;;;2460250;24;20005;-80
2023/05/18 10:59:27;;;;;;;16.75;5.82;;;;;;;;;;2515366;23;20018;-78
2023/05/18 11:00:58;;;;;;;17.60;6.05;;;;;;;;;;2518418;23;20019;-77
2023/05/18 11:02:22;;;;;;;11.80;5.90;;;;;;;;;;2508865;23;20015;-77
2023/05/18 11:03:43;;;;;;;13.10;5.85;;;;;;;;;;2513958;23;20452;-76
2023/05/18 11:05:05;;;;;;;13.98;5.90;;;;;;;;;;2520818;23;20105;-75
2023/05/18 11:11:34;;;;;;;37.83;12.48;;;;;;;;;;2498267;23;20325;-96
2023/05/18 11:12:58;;;;;;;19.85;8.50;;;;;;;;;;2488958;23;20016;-95
2023/05/18 11:14:26;;;;;;;16.83;7.93;;;;;;;;;;2482389;23;20012;-96
2023/05/18 11:15:50;;;;;;;15.73;7.65;;;;;;;;;;2486747;23;20027;-95
2023/05/18 11:17:20;;;;;;;15.55;7.40;;;;;;;;;;2438550;23;20048;-94
2023/05/18 11:20:51;;;;;;;16.85;8.20;;;;;;;;;;2453366;24;20017;-96
2023/05/18 11:24:26;;;;;;;13.80;7.82;;;;;;;;;;2463463;24;20016;-96
2023/05/18 11:26:23;;;;;;;;;;;;;;;;;;;;;
2023/05/18 11:28:05;;;;;;;14.23;8.00;;;;;;;;;;2473660;24;20371;-95
2023/05/18 11:29:57;;;;;;;21.00;10.23;;;;;;;;;;2464874;23;20020;-94
2023/05/18 11:31:31;;;;;;;;;;;;;;;;;;;;;
2023/05/18 11:33:10;;;;;;;21.10;8.48;;;;;;;;;;2474190;24;20497;-96
2023/05/18 11:34:57;;;;;;;12.80;7.32;;;;;;;;;;2484146;23;20016;-96
2023/05/18 11:36:32;;;;;;;15.98;7.93;;;;;;;;;;2507045;23;20050;-95
2023/05/18 11:38:17;;;;;;;;;;;;;;;;;;;;;
2023/05/18 11:42:02;;;;;;;17.58;7.72;;;;;;;;;;2512114;23;20014;-95
2023/05/18 11:43:24;;;;;;;15.48;7.93;;;;;;;;;;2497934;23;20022;-94
2023/05/18 11:49:20;;;;;;;17.23;8.48;;;;;;;;;;2475946;24;20043;-96
2023/05/18 11:50:51;;;;;;;;;;;;;;;;;;;;;
2023/05/18 11:54:30;;;;;;;20.65;9.50;;;;;;;;;;2477775;23;20035;-96
2023/05/18 11:55:56;;;;;;;14.43;7.90;;;;;;;;;;2474682;24;20038;-96
2023/05/18 11:59:37;;;;;;;26.50;10.68;;;;;;;;;;2510333;23;20011;-96
2023/05/18 12:01:32;;;;;;;20.40;9.38;;;;;;;;;;2509496;23;20126;-96
2023/05/18 12:03:09;;;;;;;19.52;7.65;;;;;;;;;;2510346;23;20025;-96
2023/05/18 12:05:01;;;;;;;;;;;;;;;;;;;;;
2023/05/18 12:06:25;;;;;;;26.30;10.07;;;;;;;;;;2510144;23;20333;-96
2023/05/18 12:08:02;;;;;;;45.90;19.25;;;;;;;;;;2488623;23;20011;-96
2023/05/18 12:09:35;;;;;;;15.60;7.20;;;;;;;;;;2486801;23;20015;-95
2023/05/18 12:11:06;;;;;;;13.15;7.53;;;;;;;;;;2483349;23;20035;-95
2023/05/18 12:12:32;;;;;;;15.57;8.20;;;;;;;;;;2507319;23;20033;-95
2023/05/18 12:13:56;;;;;;;14.30;7.65;;;;;;;;;;2505131;23;20010;-94
2023/05/18 12:15:23;;;;;;;13.32;7.82;;;;;;;;;;2513565;23;20050;-95
2023/05/18 12:16:50;;;;;;;21.85;9.45;;;;;;;;;;2505402;23;20085;-94
2023/05/18 12:18:44;;;;;;;;;;;;;;;;;;;;;
2023/05/18 12:20:19;;;;;;;15.82;7.38;;;;;;;;;;2506307;23;20011;-95
2023/05/18 12:21:49;;;;;;;19.25;7.93;;;;;;;;;;2505980;23;20408;-95
2023/05/18 12:23:20;;;;;;;17.90;8.10;;;;;;;;;;2511129;23;20022;-96
2023/05/18 12:24:49;;;;;;;12.90;6.70;;;;;;;;;;2508499;23;20275;-96
2023/05/18 12:26:25;;;;;;;14.32;7.20;;;;;;;;;;2509076;23;20031;-96
2023/05/18 12:27:49;;;;;;;17.85;8.10;;;;;;;;;;2497810;23;20025;-95
2023/05/18 12:35:25;;;;;;;15.93;8.93;;;;;;;;;;2507362;23;20021;-96
2023/05/18 12:37:24;;;;;;;19.73;12.52;;;;;;;;;;2498944;23;20098;-96
2023/05/18 12:39:12;;;;;;;19.48;8.40;;;;;;;;;;2455330;23;20021;-96
2023/05/18 12:45:20;;;;;;;14.07;7.68;;;;;;;;;;2474715;24;20012;-96
2023/05/18 12:46:55;;;;;;;15.90;7.32;;;;;;;;;;2479526;24;20020;-96
